Time;durP1;ratioP1;P1;durP2;ratioP2;P2;SDS_P1;SDS_P2;PMS_P1;PMS_P2;Temp;Humidity;BMP_temperature;BMP_pressure;BME280_temperature;BME280_humidity;BME280_pressure;Samples;Min_cycle;Max_cycle;Signal;HPM_P1;HPM_P2
2023/12/07 00:00:51;;;;;;;39.67;19.57;;;1.40;99.90;;;;;;4861226;29;20439;-74
2023/12/07 00:03:17;;;;;;;39.20;21.03;;;1.30;99.90;;;;;;4859222;29;20488;-73
2023/12/07 00:05:42;;;;;;;35.00;19.50;;;1.30;99.90;;;;;;4856440;29;20208;-73
2023/12/07 00:08:11;;;;;;;39.30;17.30;;;1.20;99.90;;;;;;4856761;29;20507;-74
2023/12/07 00:10:36;;;;;;;38.60;19.90;;;1.20;99.90;;;;;;4855708;29;20192;-73
2023/12/07 00:13:02;;;;;;;38.80;16.60;;;1.20;99.90;;;;;;4858408;29;20909;-74
2023/12/07 00:15:28;;;;;;;37.80;15.93;;;1.10;99.90;;;;;;4856467;29;20506;-75
2023/12/07 00:17:54;;;;;;;28.87;17.03;;;1.10;99.90;;;;;;4860875;29;20437;-73
2023/12/07 00:20:19;;;;;;;33.70;17.43;;;1.10;99.90;;;;;;4854119;29;20192;-72
2023/12/07 00:22:45;;;;;;;35.23;19.07;;;1.10;99.90;;;;;;4857774;29;20291;-72
2023/12/07 00:25:11;;;;;;;42.43;19.50;;;1.10;99.90;;;;;;4856212;29;20292;-73
2023/12/07 00:27:37;;;;;;;46.47;20.87;;;1.10;99.90;;;;;;4853936;29;20469;-73
2023/12/07 00:30:03;;;;;;;33.50;18.43;;;1.10;99.90;;;;;;4858808;29;20201;-74
2023/12/07 00:32:29;;;;;;;37.70;20.13;;;1.00;99.90;;;;;;4852624;29;20597;-73
2023/12/07 00:34:54;;;;;;;32.97;18.30;;;1.10;99.90;;;;;;4857891;29;20521;-73
2023/12/07 00:37:20;;;;;;;40.77;19.73;;;1.00;99.90;;;;;;4864403;29;20258;-73
2023/12/07 00:39:46;;;;;;;41.13;21.20;;;1.10;99.90;;;;;;4848819;29;20184;-73
2023/12/07 00:42:11;;;;;;;43.10;22.07;;;1.10;99.90;;;;;;4867640;29;20636;-73
2023/12/07 00:44:40;;;;;;;40.60;21.00;;;1.10;99.90;;;;;;4861461;29;20192;-73
2023/12/07 00:47:06;;;;;;;51.63;23.63;;;1.20;99.90;;;;;;4862502;29;20220;-73
2023/12/07 00:49:32;;;;;;;41.57;21.20;;;1.20;99.90;;;;;;4858486;29;20853;-72
2023/12/07 00:51:58;;;;;;;42.50;22.00;;;1.20;99.90;;;;;;4842735;29;20190;-73
2023/12/07 00:54:23;;;;;;;47.77;23.13;;;1.20;99.90;;;;;;4856274;29;20186;-73
2023/12/07 00:56:49;;;;;;;44.57;21.50;;;1.20;99.90;;;;;;4866038;29;20196;-72
2023/12/07 00:59:14;;;;;;;54.10;22.60;;;1.20;99.90;;;;;;4870932;29;20673;-71
2023/12/07 01:01:40;;;;;;;44.00;20.47;;;1.10;99.90;;;;;;4862124;29;20209;-72
2023/12/07 01:04:06;;;;;;;40.33;20.87;;;1.10;99.90;;;;;;4862585;29;20200;-73
2023/12/07 01:06:31;;;;;;;42.23;19.70;;;1.10;99.90;;;;;;4863085;29;20229;-74
2023/12/07 01:08:57;;;;;;;45.83;21.00;;;1.10;99.90;;;;;;4863131;29;20172;-73
2023/12/07 01:11:23;;;;;;;42.87;20.90;;;1.10;99.90;;;;;;4861215;29;20188;-73
2023/12/07 01:13:49;;;;;;;41.70;19.60;;;1.00;99.90;;;;;;4863622;29;20660;-73
2023/12/07 01:16:14;;;;;;;40.60;19.33;;;1.00;99.90;;;;;;4869312;29;20216;-75
2023/12/07 01:18:40;;;;;;;45.67;21.90;;;1.00;99.90;;;;;;4850953;29;20678;-73
2023/12/07 01:21:05;;;;;;;51.30;21.90;;;1.00;99.90;;;;;;4858187;29;20212;-73
2023/12/07 01:23:32;;;;;;;38.80;19.93;;;1.00;99.90;;;;;;4858409;29;20197;-72
2023/12/07 01:25:57;;;;;;;50.03;23.67;;;0.90;99.90;;;;;;4848119;29;20231;-73
2023/12/07 01:28:23;;;;;;;44.00;21.30;;;0.90;99.90;;;;;;4859099;29;20461;-73
2023/12/07 01:30:49;;;;;;;49.77;24.80;;;0.90;99.90;;;;;;4855311;29;20213;-73
2023/12/07 01:33:15;;;;;;;48.90;22.47;;;0.90;99.90;;;;;;4853096;29;20233;-74
2023/12/07 01:35:40;;;;;;;52.77;26.43;;;1.00;99.90;;;;;;4861754;29;20219;-72
2023/12/07 01:38:06;;;;;;;60.73;24.40;;;1.00;99.90;;;;;;4854023;29;20423;-73
2023/12/07 01:40:32;;;;;;;50.90;21.83;;;1.00;99.90;;;;;;4857164;29;20189;-73
2023/12/07 01:42:57;;;;;;;55.80;24.70;;;1.00;99.90;;;;;;4857438;29;20256;-74
2023/12/07 01:45:23;;;;;;;56.53;25.90;;;1.00;99.90;;;;;;4857881;29;20516;-72
2023/12/07 01:47:50;;;;;;;55.87;24.43;;;1.00;99.90;;;;;;4853721;29;20578;-72
2023/12/07 01:50:17;;;;;;;52.33;24.30;;;1.00;99.90;;;;;;4850888;29;20201;-72
2023/12/07 01:52:47;;;;;;;51.53;23.60;;;1.00;99.90;;;;;;4858836;29;20417;-72
2023/12/07 01:55:14;;;;;;;54.70;23.50;;;1.00;99.90;;;;;;4856450;29;20458;-73
2023/12/07 01:57:41;;;;;;;56.20;23.40;;;1.00;99.90;;;;;;4862193;29;20417;-72
2023/12/07 02:00:09;;;;;;;54.73;25.00;;;0.90;99.90;;;;;;4860945;29;20425;-72
2023/12/07 02:02:35;;;;;;;48.17;23.83;;;0.90;99.90;;;;;;4861006;29;20441;-72
2023/12/07 02:05:01;;;;;;;52.33;22.93;;;0.90;99.90;;;;;;4857674;29;20468;-71
2023/12/07 02:07:28;;;;;;;43.03;20.43;;;0.80;99.90;;;;;;4861163;29;20542;-72
2023/12/07 02:09:53;;;;;;;43.43;20.07;;;0.80;99.90;;;;;;4859610;29;20849;-73
2023/12/07 02:12:20;;;;;;;48.13;22.90;;;0.80;99.90;;;;;;4856590;29;20439;-73
2023/12/07 02:14:46;;;;;;;48.33;22.37;;;0.80;99.90;;;;;;4853254;29;20267;-71
2023/12/07 02:17:25;;;;;;;37.73;18.27;;;0.80;99.90;;;;;;4849601;29;20438;-72
2023/12/07 02:20:28;;;;;;;54.80;23.37;;;0.90;99.90;;;;;;4857525;29;20899;-73
2023/12/07 02:23:28;;;;;;;43.83;20.30;;;0.90;99.90;;;;;;4852986;29;20501;-72
2023/12/07 02:25:57;;;;;;;56.67;21.50;;;0.90;99.90;;;;;;4850114;29;20445;-73
2023/12/07 02:28:41;;;;;;;46.67;21.70;;;1.00;99.90;;;;;;4850246;29;20420;-73
2023/12/07 02:31:08;;;;;;;54.47;23.73;;;1.00;99.90;;;;;;4860566;29;20426;-73
2023/12/07 02:33:33;;;;;;;54.83;23.33;;;1.00;99.90;;;;;;4856127;29;20768;-71
2023/12/07 02:35:59;;;;;;;53.87;26.17;;;0.90;99.90;;;;;;4841227;29;20449;-74
2023/12/07 02:38:28;;;;;;;66.17;26.63;;;0.90;99.90;;;;;;4857151;29;20224;-72
2023/12/07 02:40:55;;;;;;;55.43;26.60;;;0.90;99.90;;;;;;4858102;29;20534;-73
2023/12/07 02:43:21;;;;;;;58.03;23.37;;;0.90;99.90;;;;;;4851734;29;21025;-72
2023/12/07 02:45:48;;;;;;;51.93;23.57;;;0.90;99.90;;;;;;4857037;29;20442;-74
2023/12/07 02:48:14;;;;;;;46.20;23.20;;;1.00;99.90;;;;;;4848945;29;20770;-74
2023/12/07 02:50:39;;;;;;;50.03;20.77;;;1.00;99.90;;;;;;4853892;29;20434;-73
2023/12/07 02:53:05;;;;;;;56.47;23.77;;;1.00;99.90;;;;;;4855390;29;20504;-72
2023/12/07 02:55:31;;;;;;;45.17;21.20;;;1.10;99.90;;;;;;4854980;29;20279;-72
2023/12/07 02:57:56;;;;;;;70.40;27.77;;;1.10;99.90;;;;;;4860183;29;20188;-73
2023/12/07 03:00:22;;;;;;;65.50;28.93;;;1.20;99.90;;;;;;4861395;29;20197;-72
2023/12/07 03:02:47;;;;;;;64.43;25.80;;;1.20;99.90;;;;;;4858412;29;20497;-72
2023/12/07 03:05:13;;;;;;;82.17;31.40;;;1.20;99.90;;;;;;4862241;29;20225;-73
2023/12/07 03:07:39;;;;;;;66.70;29.80;;;1.30;99.90;;;;;;4860544;29;20213;-73
2023/12/07 03:10:05;;;;;;;82.80;30.97;;;1.30;99.90;;;;;;4863035;29;20193;-72
2023/12/07 03:12:31;;;;;;;64.27;25.67;;;1.40;99.90;;;;;;4862800;29;20191;-73
2023/12/07 03:14:57;;;;;;;72.23;25.67;;;1.50;99.90;;;;;;4863519;29;20442;-73
2023/12/07 03:17:23;;;;;;;53.53;24.70;;;1.60;99.90;;;;;;4860583;29;20220;-73
2023/12/07 03:19:49;;;;;;;63.00;27.43;;;1.60;99.90;;;;;;4853911;29;20429;-73
2023/12/07 03:22:14;;;;;;;59.27;25.00;;;1.70;99.90;;;;;;4849711;29;20249;-73
2023/12/07 03:24:46;;;;;;;66.97;27.53;;;1.60;99.90;;;;;;4854267;29;20296;-72
2023/12/07 03:27:12;;;;;;;77.10;30.33;;;1.70;99.90;;;;;;4862506;29;20215;-73
2023/12/07 03:29:37;;;;;;;72.30;27.90;;;1.70;99.90;;;;;;4860577;29;20422;-73
2023/12/07 03:32:03;;;;;;;64.63;27.13;;;1.80;99.90;;;;;;4855113;29;20193;-74
2023/12/07 03:34:29;;;;;;;63.30;24.90;;;1.80;99.90;;;;;;4851359;29;20227;-72
2023/12/07 03:36:54;;;;;;;55.20;24.53;;;1.90;99.90;;;;;;4866677;29;20421;-73
2023/12/07 03:39:22;;;;;;;56.13;23.90;;;1.90;99.90;;;;;;4859636;29;20188;-73
2023/12/07 03:41:48;;;;;;;82.83;28.80;;;1.90;99.90;;;;;;4859956;29;20280;-73
2023/12/07 03:44:14;;;;;;;56.80;25.10;;;1.90;99.90;;;;;;4857583;29;20450;-74
2023/12/07 03:46:40;;;;;;;55.17;23.43;;;2.00;99.90;;;;;;4855472;29;20482;-71
2023/12/07 03:49:05;;;;;;;57.57;26.33;;;2.00;99.90;;;;;;4854246;29;20461;-73
2023/12/07 03:51:31;;;;;;;61.53;26.10;;;2.00;99.90;;;;;;4861898;29;20208;-73
2023/12/07 03:53:57;;;;;;;48.33;21.10;;;2.10;99.90;;;;;;4858052;29;20189;-73
2023/12/07 03:56:24;;;;;;;47.10;20.87;;;2.10;99.90;;;;;;4862859;29;20497;-73
2023/12/07 03:58:49;;;;;;;44.07;19.07;;;2.10;99.90;;;;;;4856463;29;20252;-72
2023/12/07 04:01:15;;;;;;;32.57;15.50;;;2.10;99.90;;;;;;4864092;29;20430;-74
2023/12/07 04:03:40;;;;;;;33.83;16.27;;;2.10;99.90;;;;;;4849487;29;20207;-74
2023/12/07 04:06:06;;;;;;;45.37;20.10;;;2.20;99.90;;;;;;4859317;29;20254;-72
2023/12/07 04:08:33;;;;;;;57.03;23.77;;;2.20;99.90;;;;;;4856156;29;20208;-72
2023/12/07 04:10:58;;;;;;;56.33;23.33;;;2.20;99.90;;;;;;4864146;29;20428;-73
2023/12/07 04:13:24;;;;;;;61.77;26.07;;;2.20;99.90;;;;;;4860470;29;20458;-73
2023/12/07 04:15:49;;;;;;;51.00;21.43;;;2.20;99.90;;;;;;4867999;29;20207;-73
2023/12/07 04:18:15;;;;;;;49.90;20.57;;;2.20;99.90;;;;;;4854708;29;20265;-74
2023/12/07 04:20:41;;;;;;;53.10;23.87;;;2.20;99.90;;;;;;4861788;29;20204;-74
2023/12/07 04:23:07;;;;;;;53.57;23.17;;;2.20;99.90;;;;;;4861696;29;20516;-73
2023/12/07 04:25:32;;;;;;;52.77;21.60;;;2.10;99.90;;;;;;4858877;29;20308;-72
2023/12/07 04:27:59;;;;;;;48.43;22.10;;;2.00;99.90;;;;;;4860525;29;20204;-72
2023/12/07 04:30:24;;;;;;;43.57;19.03;;;1.90;99.90;;;;;;4862095;29;20197;-73
2023/12/07 04:32:50;;;;;;;46.27;19.63;;;1.80;99.90;;;;;;4867694;29;20524;-73
2023/12/07 04:35:16;;;;;;;39.53;17.60;;;1.70;99.90;;;;;;4861046;29;20217;-72
2023/12/07 04:37:42;;;;;;;42.93;19.43;;;1.70;99.90;;;;;;4850560;29;20185;-72
2023/12/07 04:40:08;;;;;;;34.83;15.90;;;1.70;99.90;;;;;;4864858;29;20516;-72
2023/12/07 04:42:34;;;;;;;31.10;14.70;;;1.70;99.90;;;;;;4861246;29;20787;-72
2023/12/07 04:44:59;;;;;;;38.10;17.20;;;1.80;99.90;;;;;;4859129;29;20455;-73
2023/12/07 04:47:25;;;;;;;34.57;13.90;;;1.90;99.90;;;;;;4862070;29;20213;-73
2023/12/07 04:49:51;;;;;;;31.27;14.00;;;2.00;99.90;;;;;;4865778;29;20200;-71
2023/12/07 04:52:16;;;;;;;23.10;11.20;;;2.00;99.90;;;;;;4861359;29;20277;-73
2023/12/07 04:54:42;;;;;;;22.10;11.13;;;2.10;99.90;;;;;;4859639;29;20264;-73
2023/12/07 04:57:08;;;;;;;22.00;12.27;;;2.20;99.90;;;;;;4859491;29;20196;-75
2023/12/07 04:59:35;;;;;;;25.50;12.67;;;2.20;99.90;;;;;;4854151;29;20205;-72
2023/12/07 05:02:00;;;;;;;32.93;13.60;;;2.30;99.90;;;;;;4856940;29;20746;-72
2023/12/07 05:04:26;;;;;;;30.53;12.50;;;2.30;99.90;;;;;;4865421;29;20516;-73
2023/12/07 05:06:51;;;;;;;37.90;14.50;;;2.30;99.90;;;;;;4861889;29;20219;-73
2023/12/07 05:09:17;;;;;;;27.20;12.87;;;2.40;99.90;;;;;;4860326;29;20209;-72
2023/12/07 05:11:44;;;;;;;39.40;15.60;;;2.40;99.90;;;;;;4859445;29;20260;-72
2023/12/07 05:14:10;;;;;;;35.00;15.77;;;2.30;99.90;;;;;;4856356;29;20491;-72
2023/12/07 05:16:36;;;;;;;34.17;15.43;;;2.30;99.90;;;;;;4855500;29;20524;-73
2023/12/07 05:19:02;;;;;;;38.77;14.67;;;2.30;99.90;;;;;;4856391;29;20196;-73
2023/12/07 05:21:28;;;;;;;30.50;12.87;;;2.30;99.90;;;;;;4853848;29;20340;-74
2023/12/07 05:23:54;;;;;;;23.33;13.77;;;2.20;99.90;;;;;;4861166;29;20958;-74
2023/12/07 05:26:21;;;;;;;23.43;12.00;;;2.20;99.90;;;;;;4853566;29;20315;-73
2023/12/07 05:28:47;;;;;;;32.07;14.53;;;2.20;99.90;;;;;;4857706;29;20204;-72
2023/12/07 05:31:18;;;;;;;32.60;14.43;;;2.20;99.90;;;;;;4857819;29;20426;-74
2023/12/07 05:33:44;;;;;;;30.73;13.83;;;2.20;99.90;;;;;;4857961;29;20557;-73
2023/12/07 05:36:10;;;;;;;31.87;15.57;;;2.10;99.90;;;;;;4864634;29;20489;-73
2023/12/07 05:38:35;;;;;;;29.10;14.53;;;2.00;99.90;;;;;;4864490;29;20433;-74
2023/12/07 05:41:01;;;;;;;29.00;14.93;;;1.90;99.90;;;;;;4867812;29;20502;-73
2023/12/07 05:43:27;;;;;;;24.10;12.90;;;1.80;99.90;;;;;;4862862;29;20305;-73
2023/12/07 05:45:52;;;;;;;24.17;11.70;;;1.70;99.90;;;;;;4860565;29;20209;-73
2023/12/07 05:48:18;;;;;;;19.13;10.33;;;1.60;99.90;;;;;;4858944;29;20208;-74
2023/12/07 05:50:44;;;;;;;18.63;10.27;;;1.60;99.90;;;;;;4858591;29;20189;-73
2023/12/07 05:53:10;;;;;;;27.23;12.00;;;1.50;99.90;;;;;;4856154;29;20203;-74
2023/12/07 05:55:36;;;;;;;20.17;10.57;;;1.40;99.90;;;;;;4855659;29;20216;-74
2023/12/07 05:58:03;;;;;;;17.83;10.00;;;1.50;99.90;;;;;;4865240;29;20433;-73
2023/12/07 06:00:31;;;;;;;19.53;10.67;;;1.40;99.90;;;;;;4851360;29;20462;-73
2023/12/07 06:02:57;;;;;;;20.70;9.97;;;1.40;99.90;;;;;;4853251;29;20421;-75
2023/12/07 06:05:22;;;;;;;23.97;13.87;;;1.40;99.90;;;;;;4856983;29;20521;-72
2023/12/07 06:07:48;;;;;;;27.40;12.20;;;1.50;99.90;;;;;;4862858;29;20555;-74
2023/12/07 06:10:13;;;;;;;27.60;14.17;;;1.50;99.90;;;;;;4857675;29;20197;-74
2023/12/07 06:12:39;;;;;;;25.77;13.77;;;1.50;99.90;;;;;;4859602;29;20609;-74
2023/12/07 06:15:06;;;;;;;30.37;14.10;;;1.40;99.90;;;;;;4860893;29;20208;-74
2023/12/07 06:17:33;;;;;;;37.20;16.63;;;1.40;99.90;;;;;;4860689;29;20209;-73
2023/12/07 06:19:59;;;;;;;29.53;15.17;;;1.40;99.90;;;;;;4867107;29;20441;-74
2023/12/07 06:22:25;;;;;;;31.60;13.93;;;1.30;99.90;;;;;;4864467;29;20437;-74
2023/12/07 06:24:50;;;;;;;25.53;14.57;;;1.30;99.90;;;;;;4859471;29;20220;-74
2023/12/07 06:27:16;;;;;;;28.50;14.00;;;1.20;99.90;;;;;;4865847;29;20208;-75
2023/12/07 06:29:41;;;;;;;27.37;13.70;;;1.20;99.90;;;;;;4860405;29;20265;-75
2023/12/07 06:32:07;;;;;;;29.50;16.07;;;1.20;99.90;;;;;;4860748;29;20220;-74
2023/12/07 06:34:33;;;;;;;28.07;13.77;;;1.10;99.90;;;;;;4867576;29;20252;-75
2023/12/07 06:36:58;;;;;;;26.43;12.53;;;1.10;99.90;;;;;;4861635;29;20288;-74
2023/12/07 06:39:24;;;;;;;20.97;11.97;;;1.00;99.90;;;;;;4858465;29;20561;-76
2023/12/07 06:41:50;;;;;;;21.97;12.63;;;0.90;99.90;;;;;;4863209;29;20231;-77
2023/12/07 06:44:15;;;;;;;34.53;14.87;;;0.90;99.90;;;;;;4861968;29;20189;-75
2023/12/07 06:46:41;;;;;;;27.37;15.47;;;0.90;99.90;;;;;;4862920;29;20224;-76
2023/12/07 06:49:07;;;;;;;31.53;14.33;;;0.90;99.90;;;;;;4850287;29;20200;-76
2023/12/07 06:51:32;;;;;;;31.00;14.80;;;0.80;99.90;;;;;;4858411;29;20208;-76
2023/12/07 06:53:58;;;;;;;22.43;12.87;;;0.80;99.90;;;;;;4842769;29;20205;-79
2023/12/07 06:56:25;;;;;;;33.20;16.17;;;0.80;99.90;;;;;;4868999;29;20221;-78
2023/12/07 06:58:50;;;;;;;38.57;17.57;;;0.70;99.90;;;;;;4860615;29;20643;-75
2023/12/07 07:01:16;;;;;;;32.23;15.20;;;0.80;99.90;;;;;;4852760;29;20437;-75
2023/12/07 07:03:42;;;;;;;27.20;13.90;;;0.70;99.90;;;;;;4842231;29;20201;-75
2023/12/07 07:06:08;;;;;;;36.00;17.30;;;0.70;99.90;;;;;;4866952;29;20242;-75
2023/12/07 07:08:33;;;;;;;40.13;16.30;;;0.60;99.90;;;;;;4872116;29;20200;-74
2023/12/07 07:10:59;;;;;;;31.23;16.37;;;0.60;99.90;;;;;;4861171;29;20578;-75
2023/12/07 07:13:26;;;;;;;33.53;14.63;;;0.50;99.90;;;;;;4863311;29;20292;-76
2023/12/07 07:15:51;;;;;;;26.13;14.70;;;0.50;99.90;;;;;;4865634;29;20229;-74
2023/12/07 07:18:17;;;;;;;26.47;15.10;;;0.60;99.90;;;;;;4861484;29;20449;-75
2023/12/07 07:20:44;;;;;;;29.40;14.10;;;0.50;99.90;;;;;;4866731;29;20192;-75
2023/12/07 07:23:10;;;;;;;35.00;17.83;;;0.50;99.90;;;;;;4847239;29;20437;-74
2023/12/07 07:25:36;;;;;;;37.83;18.97;;;0.50;99.90;;;;;;4864796;29;20477;-76
2023/12/07 07:28:02;;;;;;;30.83;16.63;;;0.50;99.90;;;;;;4868337;29;20245;-76
2023/12/07 07:30:29;;;;;;;39.03;17.20;;;0.60;99.90;;;;;;4855270;29;20177;-77
2023/12/07 07:32:55;;;;;;;35.97;15.13;;;0.50;99.90;;;;;;4844638;29;20436;-80
2023/12/07 07:35:23;;;;;;;40.70;18.50;;;0.50;99.90;;;;;;4864755;29;20461;-80
2023/12/07 07:37:49;;;;;;;39.53;18.40;;;0.50;99.90;;;;;;4848158;29;20745;-74
2023/12/07 07:40:14;;;;;;;41.87;17.87;;;0.50;99.90;;;;;;4865306;29;20869;-76
2023/12/07 07:42:40;;;;;;;38.63;17.20;;;0.50;99.90;;;;;;4846621;29;20214;-77
2023/12/07 07:45:10;;;;;;;31.87;15.60;;;0.60;99.90;;;;;;4862766;29;20502;-72
2023/12/07 07:47:35;;;;;;;38.47;17.37;;;0.60;99.90;;;;;;4861001;29;20228;-74
2023/12/07 07:50:05;;;;;;;48.70;20.90;;;0.60;99.90;;;;;;4869296;29;20459;-77
2023/12/07 07:52:33;;;;;;;45.47;20.80;;;0.70;99.90;;;;;;4858584;29;20196;-74
2023/12/07 07:55:00;;;;;;;41.00;18.83;;;0.70;99.90;;;;;;4871398;29;20447;-78
2023/12/07 07:57:26;;;;;;;41.87;18.27;;;0.70;99.90;;;;;;4875120;29;20441;-74
2023/12/07 07:59:51;;;;;;;40.53;20.13;;;0.70;99.90;;;;;;4869922;29;20432;-75
2023/12/07 08:02:17;;;;;;;34.03;19.50;;;0.70;99.90;;;;;;4869294;29;20199;-78
2023/12/07 08:04:43;;;;;;;34.57;17.07;;;0.70;99.90;;;;;;4862715;29;20196;-77
2023/12/07 08:07:11;;;;;;;41.63;17.37;;;0.70;99.90;;;;;;4867767;29;20303;-78
2023/12/07 08:09:44;;;;;;;39.80;17.80;;;0.70;99.90;;;;;;4868980;29;20184;-78
2023/12/07 08:12:10;;;;;;;39.70;19.20;;;0.70;99.90;;;;;;4856810;29;20441;-77
2023/12/07 08:14:36;;;;;;;38.73;17.40;;;0.70;99.90;;;;;;4863298;29;20811;-77
2023/12/07 08:17:03;;;;;;;31.07;16.13;;;0.70;99.90;;;;;;4869182;29;20410;-79
2023/12/07 08:19:30;;;;;;;34.77;18.80;;;0.70;99.90;;;;;;4871019;29;20473;-76
2023/12/07 08:21:55;;;;;;;33.40;17.80;;;0.60;99.90;;;;;;4847413;29;20420;-78
2023/12/07 08:24:21;;;;;;;37.17;19.03;;;0.70;99.90;;;;;;4854392;29;20433;-78
2023/12/07 08:26:47;;;;;;;40.67;19.13;;;0.60;99.90;;;;;;4861014;29;20225;-77
2023/12/07 08:29:13;;;;;;;36.20;19.13;;;0.70;99.90;;;;;;4863904;29;20512;-74
2023/12/07 08:31:40;;;;;;;36.77;18.67;;;0.80;99.90;;;;;;4862191;29;20185;-74
2023/12/07 08:34:06;;;;;;;38.40;19.70;;;1.00;99.90;;;;;;4856454;29;20248;-75
2023/12/07 08:36:31;;;;;;;44.57;20.63;;;1.00;99.90;;;;;;4864595;29;20465;-78
2023/12/07 08:38:57;;;;;;;30.87;16.80;;;1.00;99.90;;;;;;4862615;29;20236;-76
2023/12/07 08:41:23;;;;;;;33.97;17.20;;;0.90;99.90;;;;;;4866528;29;20240;-77
2023/12/07 08:43:49;;;;;;;42.13;19.53;;;0.90;99.90;;;;;;4864005;29;20204;-76
2023/12/07 08:46:15;;;;;;;31.60;16.67;;;0.90;99.90;;;;;;4847415;29;20502;-78
2023/12/07 08:48:40;;;;;;;39.93;19.40;;;0.90;99.90;;;;;;4862876;29;20192;-75
2023/12/07 08:51:08;;;;;;;32.07;16.90;;;0.90;99.90;;;;;;4861584;29;20422;-78
2023/12/07 08:53:35;;;;;;;30.83;17.03;;;1.00;99.90;;;;;;4863202;29;20212;-76
2023/12/07 08:56:01;;;;;;;35.07;18.53;;;1.00;99.90;;;;;;4865235;29;20502;-76
2023/12/07 08:58:30;;;;;;;36.87;18.33;;;1.00;99.90;;;;;;4867598;29;20426;-76
2023/12/07 09:00:55;;;;;;;37.67;21.00;;;1.00;99.90;;;;;;4866438;29;20484;-77
2023/12/07 09:03:25;;;;;;;35.10;19.10;;;1.10;99.90;;;;;;4877731;29;20434;-76
2023/12/07 09:05:51;;;;;;;37.53;20.13;;;1.10;99.90;;;;;;4866474;29;20239;-76
2023/12/07 09:08:17;;;;;;;37.80;19.73;;;1.20;99.90;;;;;;4846296;29;20533;-74
2023/12/07 09:10:42;;;;;;;38.70;19.60;;;1.20;99.90;;;;;;4864401;29;20419;-78
2023/12/07 09:13:08;;;;;;;39.00;22.60;;;1.30;99.90;;;;;;4851153;29;20245;-73
2023/12/07 09:15:37;;;;;;;32.57;18.60;;;1.30;99.90;;;;;;4859762;29;20466;-77
2023/12/07 09:18:03;;;;;;;33.17;19.33;;;1.40;99.90;;;;;;4855842;29;20197;-77
2023/12/07 09:20:29;;;;;;;42.73;21.97;;;1.40;99.90;;;;;;4859994;29;20481;-75
2023/12/07 09:22:57;;;;;;;48.13;23.17;;;1.50;99.90;;;;;;4860722;29;20429;-73
2023/12/07 09:25:27;;;;;;;38.77;21.43;;;1.50;99.90;;;;;;4866961;29;20213;-77
2023/12/07 09:27:56;;;;;;;41.67;20.33;;;1.60;99.90;;;;;;4866883;29;20489;-78
2023/12/07 09:30:22;;;;;;;41.00;22.13;;;1.60;99.90;;;;;;4826687;29;20493;-77
2023/12/07 09:32:48;;;;;;;48.20;22.63;;;1.80;99.90;;;;;;4850625;29;20432;-77
2023/12/07 09:35:16;;;;;;;42.27;22.30;;;1.90;99.90;;;;;;4847263;29;20595;-75
2023/12/07 09:37:43;;;;;;;36.00;22.07;;;1.90;99.90;;;;;;4866554;29;20504;-77
2023/12/07 09:40:18;;;;;;;35.73;21.17;;;1.90;99.90;;;;;;4869840;29;20422;-77
2023/12/07 09:42:45;;;;;;;33.07;19.70;;;1.90;99.90;;;;;;4847782;29;20204;-77
2023/12/07 09:45:11;;;;;;;39.90;20.83;;;1.90;99.90;;;;;;4834837;29;20457;-77
2023/12/07 09:47:39;;;;;;;43.10;22.43;;;2.00;99.90;;;;;;4847883;29;20523;-75
2023/12/07 09:50:09;;;;;;;33.73;20.97;;;2.00;99.90;;;;;;4860862;29;20419;-77
2023/12/07 09:52:36;;;;;;;33.37;20.07;;;2.00;99.90;;;;;;4841735;29;20524;-75
2023/12/07 09:55:15;;;;;;;;;;;;;;;;;;;;;
2023/12/07 09:57:41;;;;;;;32.40;20.47;;;2.10;99.90;;;;;;4834821;29;20452;-75
2023/12/07 10:00:13;;;;;;;31.80;20.90;;;2.10;99.90;;;;;;4853510;29;20430;-78
2023/12/07 10:02:41;;;;;;;34.70;20.87;;;2.10;99.90;;;;;;4851996;29;20582;-77
2023/12/07 10:05:10;;;;;;;36.17;20.40;;;2.10;99.90;;;;;;4861575;29;20468;-76
2023/12/07 10:07:41;;;;;;;34.17;20.87;;;2.20;99.90;;;;;;4838367;29;20481;-77
2023/12/07 10:10:11;;;;;;;28.70;18.97;;;2.20;99.90;;;;;;4866208;29;20454;-78
2023/12/07 10:12:54;;;;;;;33.63;20.03;;;2.20;99.90;;;;;;4857870;29;20437;-79
2023/12/07 10:15:23;;;;;;;27.73;18.00;;;2.30;99.90;;;;;;4864422;29;20454;-80
2023/12/07 10:17:55;;;;;;;25.03;17.93;;;2.40;99.90;;;;;;4840705;29;20469;-77
2023/12/07 10:20:26;;;;;;;38.40;20.60;;;2.40;99.90;;;;;;4852143;29;20444;-75
2023/12/07 10:23:08;;;;;;;31.97;19.60;;;2.50;99.90;;;;;;4861221;29;20462;-78
2023/12/07 10:25:40;;;;;;;23.43;16.70;;;2.50;99.90;;;;;;4854958;29;20787;-76
2023/12/07 10:28:10;;;;;;;28.10;16.90;;;2.60;99.90;;;;;;4873790;29;20461;-77
2023/12/07 10:30:41;;;;;;;22.07;16.43;;;2.60;99.90;;;;;;4866570;29;20458;-78
2023/12/07 10:33:07;;;;;;;32.90;20.07;;;2.60;99.90;;;;;;4872179;29;20463;-79
2023/12/07 10:35:48;;;;;;;29.87;20.43;;;2.70;99.90;;;;;;4851248;29;20482;-79
2023/12/07 10:38:14;;;;;;;32.23;19.13;;;2.70;99.90;;;;;;4856482;29;20433;-79
2023/12/07 10:40:41;;;;;;;28.30;18.90;;;2.80;99.90;;;;;;4871699;29;20434;-80
2023/12/07 10:43:11;;;;;;;32.07;19.97;;;2.80;99.90;;;;;;4868081;29;20437;-78
2023/12/07 10:45:37;;;;;;;29.90;18.73;;;3.10;99.90;;;;;;4840475;29;20459;-79
2023/12/07 10:48:06;;;;;;;25.97;18.00;;;3.00;99.90;;;;;;4853381;29;20467;-79
2023/12/07 10:50:41;;;;;;;28.03;17.03;;;3.20;99.90;;;;;;4848378;29;20470;-78
2023/12/07 10:53:47;;;;;;;25.03;14.50;;;3.20;99.90;;;;;;4835572;29;20509;-79
2023/12/07 10:56:37;;;;;;;22.43;15.63;;;3.30;99.90;;;;;;4867241;29;20429;-81
2023/12/07 10:59:32;;;;;;;23.03;14.97;;;3.30;99.90;;;;;;4875191;29;20437;-81
2023/12/07 11:02:06;;;;;;;22.93;14.90;;;3.30;99.90;;;;;;4849974;29;20521;-79
2023/12/07 11:04:35;;;;;;;19.27;15.13;;;3.30;99.90;;;;;;4871269;29;20521;-78
2023/12/07 11:07:09;;;;;;;19.40;13.60;;;3.20;99.90;;;;;;4867632;29;20530;-77
2023/12/07 11:09:43;;;;;;;23.47;14.27;;;3.20;99.90;;;;;;4859346;29;20413;-79
2023/12/07 11:12:24;;;;;;;22.20;14.23;;;3.10;99.90;;;;;;4856612;29;20452;-77
2023/12/07 11:14:50;;;;;;;21.10;14.37;;;3.00;99.90;;;;;;4863450;29;20457;-77
2023/12/07 11:17:16;;;;;;;21.80;15.30;;;2.90;99.90;;;;;;4855791;29;20400;-77
2023/12/07 11:19:46;;;;;;;21.73;13.60;;;2.90;99.90;;;;;;4873724;29;20189;-77
2023/12/07 11:22:13;;;;;;;22.07;13.97;;;2.80;99.90;;;;;;4853037;29;20428;-76
2023/12/07 11:25:01;;;;;;;18.13;13.83;;;2.80;99.90;;;;;;4870890;29;20535;-75
2023/12/07 11:27:31;;;;;;;25.93;14.83;;;2.80;99.90;;;;;;4876059;29;20517;-77
2023/12/07 11:30:00;;;;;;;23.63;15.67;;;2.90;99.90;;;;;;4854902;29;20409;-76
2023/12/07 11:32:27;;;;;;;22.07;15.40;;;3.00;99.90;;;;;;4847324;29;20427;-78
2023/12/07 11:34:53;;;;;;;23.13;16.10;;;3.00;99.90;;;;;;4870407;29;20469;-79
2023/12/07 11:37:20;;;;;;;23.00;16.33;;;3.00;99.90;;;;;;4852564;29;20453;-75
2023/12/07 11:39:45;;;;;;;20.60;15.80;;;3.10;99.90;;;;;;4856010;29;20441;-79
2023/12/07 11:42:15;;;;;;;25.80;16.90;;;3.20;99.90;;;;;;4866866;29;20445;-78
2023/12/07 11:44:44;;;;;;;20.70;15.37;;;3.20;99.90;;;;;;4873925;29;20449;-79
2023/12/07 11:47:16;;;;;;;26.67;16.27;;;3.20;99.90;;;;;;4870012;29;20457;-79
2023/12/07 11:49:43;;;;;;;19.93;14.40;;;3.20;99.90;;;;;;4841086;29;20415;-78
2023/12/07 11:52:16;;;;;;;21.63;16.80;;;3.20;99.90;;;;;;4870485;29;20444;-79
2023/12/07 11:54:45;;;;;;;22.33;15.70;;;3.20;99.90;;;;;;4871799;29;20289;-79
2023/12/07 11:57:10;;;;;;;19.63;14.20;;;3.30;99.90;;;;;;4867612;29;20428;-79
2023/12/07 11:59:37;;;;;;;22.17;14.70;;;3.20;99.90;;;;;;4848208;29;20467;-79
2023/12/07 12:02:03;;;;;;;22.10;15.00;;;3.20;99.90;;;;;;4840646;29;20220;-79
2023/12/07 12:04:29;;;;;;;18.30;13.70;;;3.20;99.90;;;;;;4859590;29;20979;-77
2023/12/07 12:06:55;;;;;;;20.67;14.40;;;3.10;99.90;;;;;;4846024;29;20487;-77
2023/12/07 12:09:21;;;;;;;17.63;12.93;;;3.20;99.90;;;;;;4877863;29;20425;-77
2023/12/07 12:11:47;;;;;;;17.57;12.37;;;3.30;99.90;;;;;;4871782;29;20566;-77
2023/12/07 12:14:17;;;;;;;20.53;14.20;;;3.20;99.90;;;;;;4866953;29;20189;-79
2023/12/07 12:16:45;;;;;;;24.47;15.73;;;3.20;99.90;;;;;;4845916;29;20464;-78
2023/12/07 12:19:11;;;;;;;23.90;16.83;;;3.20;99.90;;;;;;4849912;29;20426;-78
2023/12/07 12:21:40;;;;;;;22.00;14.60;;;3.20;99.90;;;;;;4868595;29;20484;-78
2023/12/07 12:24:07;;;;;;;19.97;13.97;;;3.10;99.90;;;;;;4857447;29;20401;-79
2023/12/07 12:26:34;;;;;;;20.43;13.87;;;3.10;99.90;;;;;;4847220;29;20484;-77
2023/12/07 12:29:02;;;;;;;21.40;12.90;;;3.10;99.90;;;;;;4853534;29;20499;-77
2023/12/07 12:31:28;;;;;;;17.30;11.93;;;3.10;99.90;;;;;;4864257;29;20434;-75
2023/12/07 12:33:54;;;;;;;20.93;14.30;;;3.20;99.90;;;;;;4871326;29;20464;-77
2023/12/07 12:36:23;;;;;;;18.43;13.47;;;3.20;99.90;;;;;;4869336;29;20496;-77
2023/12/07 12:38:52;;;;;;;18.33;13.63;;;3.20;99.90;;;;;;4844383;29;20449;-78